Time;durP1;ratioP1;P1;durP2;ratioP2;P2;SDS_P1;SDS_P2;PMS_P1;PMS_P2;Temp;Humidity;BMP_temperature;BMP_pressure;BME280_temperature;BME280_humidity;BME280_pressure;Samples;Min_cycle;Max_cycle;Signal;HPM_P1;HPM_P2
2022/10/02 00:00:07;;;;;;;24.20;5.90;;;;;;;13.81;100.00;101310.19;5035051;28;20053;-55
2022/10/02 00:02:52;;;;;;;20.05;5.82;;;;;;;13.82;100.00;101314.56;5033323;28;20033;-55
2022/10/02 00:05:22;;;;;;;19.88;5.97;;;;;;;13.82;100.00;101322.78;5035052;28;20060;-54
2022/10/02 00:08:02;;;;;;;23.67;6.15;;;;;;;13.84;100.00;101323.31;5029480;28;20608;-54
2022/10/02 00:10:54;;;;;;;17.20;5.80;;;;;;;13.84;100.00;101317.84;5025013;28;20049;-54
2022/10/02 00:13:24;;;;;;;20.35;6.13;;;;;;;13.84;100.00;101317.84;5035451;28;20034;-58
2022/10/02 00:15:52;;;;;;;23.13;6.55;;;;;;;13.85;100.00;101316.75;5034938;28;20048;-57
2022/10/02 00:18:28;;;;;;;23.77;6.40;;;;;;;13.87;100.00;101327.44;5033208;28;20491;-56
2022/10/02 00:21:17;;;;;;;22.95;6.10;;;;;;;13.88;100.00;101321.69;5025690;28;20053;-54
2022/10/02 00:24:05;;;;;;;18.20;5.60;;;;;;;13.88;100.00;101327.16;5018652;28;20041;-55
2022/10/02 00:26:56;;;;;;;24.23;6.38;;;;;;;13.88;100.00;101323.56;5009246;28;20389;-55
2022/10/02 00:29:50;;;;;;;21.00;5.63;;;;;;;13.86;100.00;101329.34;5027567;28;20553;-54
2022/10/02 00:32:27;;;;;;;22.98;6.30;;;;;;;13.85;100.00;101324.94;5031823;28;20073;-55
2022/10/02 00:35:16;;;;;;;19.75;5.45;;;;;;;13.84;100.00;101326.06;5026862;28;20046;-57
2022/10/02 00:37:53;;;;;;;22.10;6.22;;;;;;;13.82;100.00;101331.00;5040345;28;20045;-57
2022/10/02 00:40:55;;;;;;;21.02;6.18;;;;;;;13.76;100.00;101332.94;5028216;28;20061;-57
2022/10/02 00:43:34;;;;;;;22.92;7.00;;;;;;;13.73;100.00;101335.38;5028647;28;20045;-55
2022/10/02 00:46:11;;;;;;;21.40;6.97;;;;;;;13.68;100.00;101332.66;5029254;28;20092;-58
2022/10/02 00:48:54;;;;;;;19.80;6.53;;;;;;;13.65;100.00;101328.56;5019454;28;20050;-58
2022/10/02 00:51:44;;;;;;;22.80;6.53;;;;;;;13.61;100.00;101328.31;5033423;28;20042;-56
2022/10/02 00:54:30;;;;;;;23.05;6.13;;;;;;;13.60;100.00;101337.59;5033426;28;20045;-58
2022/10/02 00:57:24;;;;;;;21.42;5.57;;;;;;;13.61;100.00;101328.31;5026789;28;20046;-58
2022/10/02 01:00:04;;;;;;;18.75;6.00;;;;;;;13.62;100.00;101324.47;5021443;28;20037;-57
2022/10/02 01:03:00;;;;;;;22.83;5.80;;;;;;;13.61;100.00;101320.09;5048546;28;20492;-54
2022/10/02 01:05:29;;;;;;;21.55;6.35;;;;;;;13.61;100.00;101317.34;5023600;28;20044;-59
2022/10/02 01:07:57;;;;;;;22.00;5.68;;;;;;;13.61;100.00;101317.34;5015857;28;20099;-57
2022/10/02 01:10:25;;;;;;;17.70;5.18;;;;;;;13.62;100.00;101316.25;5032832;28;20053;-55
2022/10/02 01:12:54;;;;;;;17.52;4.90;;;;;;;13.61;100.00;101317.34;5027146;28;20049;-57
2022/10/02 01:15:26;;;;;;;22.25;5.75;;;;;;;13.60;100.00;101315.69;5025303;28;20099;-58
2022/10/02 01:17:55;;;;;;;24.95;6.32;;;;;;;13.59;100.00;101308.59;5028577;28;20050;-59
2022/10/02 01:20:35;;;;;;;17.38;5.00;;;;;;;13.59;100.00;101316.00;5027053;28;20099;-58
2022/10/02 01:23:10;;;;;;;15.98;5.20;;;;;;;13.58;100.00;101312.41;5032164;28;20103;-57
2022/10/02 01:25:37;;;;;;;21.73;5.68;;;;;;;13.57;100.00;101316.25;5034162;28;20034;-57
2022/10/02 01:28:05;;;;;;;22.48;4.97;;;;;;;13.56;100.00;101320.06;5033394;28;20444;-58
2022/10/02 01:30:35;;;;;;;24.52;5.65;;;;;;;13.56;100.00;101313.78;5034027;28;20075;-54
2022/10/02 01:33:04;;;;;;;24.08;5.40;;;;;;;13.56;100.00;101316.53;5032359;28;20160;-55
2022/10/02 01:35:34;;;;;;;19.67;4.93;;;;;;;13.55;100.00;101323.91;5029825;28;20069;-55
2022/10/02 01:38:06;;;;;;;15.48;4.82;;;;;;;13.55;100.00;101323.91;5034363;28;20045;-55
2022/10/02 01:40:35;;;;;;;18.40;5.13;;;;;;;13.57;100.00;101329.94;5032818;28;20044;-54
2022/10/02 01:43:12;;;;;;;18.45;4.80;;;;;;;13.57;100.00;101324.47;5034413;28;20542;-55
2022/10/02 01:45:57;;;;;;;19.42;6.00;;;;;;;13.57;100.00;101324.47;5031353;28;20064;-57
2022/10/02 01:48:46;;;;;;;20.50;6.03;;;;;;;13.57;100.00;101324.47;5018262;28;20038;-57
2022/10/02 01:51:35;;;;;;;19.38;6.28;;;;;;;13.58;100.00;101328.84;5032875;28;20037;-58
2022/10/02 01:54:20;;;;;;;23.05;5.97;;;;;;;13.58;100.00;101323.38;5042689;28;20096;-57
2022/10/02 01:56:59;;;;;;;18.77;5.27;;;;;;;13.59;100.00;101325.03;5022804;28;20128;-55
2022/10/02 01:59:50;;;;;;;23.15;6.10;;;;;;;13.59;100.00;101322.28;5033997;28;20292;-58
2022/10/02 02:02:30;;;;;;;22.17;6.20;;;;;;;13.60;100.00;101323.91;5038000;28;20050;-56
2022/10/02 02:05:07;;;;;;;22.05;5.38;;;;;;;13.60;100.00;101320.34;5024047;28;20045;-55
2022/10/02 02:07:46;;;;;;;18.60;5.32;;;;;;;13.61;100.00;101336.53;5047457;28;20045;-56
2022/10/02 02:10:25;;;;;;;23.88;5.25;;;;;;;13.60;100.00;101326.66;5031829;28;20045;-55
2022/10/02 02:13:25;;;;;;;25.63;6.22;;;;;;;13.60;100.00;101343.06;5030673;28;20038;-54
2022/10/02 02:16:08;;;;;;;16.90;4.60;;;;;;;13.61;100.00;101332.94;5028608;28;20099;-54
2022/10/02 02:18:53;;;;;;;22.67;5.88;;;;;;;13.60;100.00;101345.00;5025870;28;20056;-53
2022/10/02 02:21:30;;;;;;;24.65;6.82;;;;;;;13.61;100.00;101349.38;5019240;28;20072;-56
2022/10/02 02:24:00;;;;;;;23.63;6.35;;;;;;;13.61;100.00;101352.09;5030525;28;20049;-54
2022/10/02 02:26:28;;;;;;;19.98;5.15;;;;;;;13.61;100.00;101346.63;5038277;28;20060;-57
2022/10/02 02:29:05;;;;;;;24.23;6.22;;;;;;;13.60;100.00;101337.59;5032507;28;20083;-54
2022/10/02 02:31:37;;;;;;;23.38;5.47;;;;;;;13.62;100.00;101342.81;5032101;28;20526;-54
2022/10/02 02:34:11;;;;;;;25.30;5.82;;;;;;;13.62;100.00;101346.38;5031209;28;20041;-53
2022/10/02 02:36:42;;;;;;;25.30;5.97;;;;;;;13.64;100.00;101346.91;5030398;28;20060;-51
2022/10/02 02:39:14;;;;;;;22.10;5.80;;;;;;;13.66;100.00;101343.06;5037179;28;20408;-53
2022/10/02 02:41:51;;;;;;;21.80;5.38;;;;;;;13.66;100.00;101335.66;5049161;28;20132;-53
2022/10/02 02:44:20;;;;;;;27.98;5.88;;;;;;;13.67;100.00;101345.53;5046902;28;20045;-56
2022/10/02 02:47:03;;;;;;;21.08;4.97;;;;;;;13.67;100.00;101339.25;5022904;28;20042;-56
2022/10/02 02:49:51;;;;;;;26.38;5.55;;;;;;;13.67;100.00;101342.00;5028603;28;20042;-56
2022/10/02 02:52:29;;;;;;;22.10;6.88;;;;;;;13.66;100.00;101341.16;5037559;28;20073;-58
2022/10/02 02:55:27;;;;;;;19.70;5.80;;;;;;;13.66;100.00;101334.84;5040753;28;20096;-57
2022/10/02 02:58:32;;;;;;;25.20;5.80;;;;;;;13.63;100.00;101348.00;5024212;28;20050;-52
2022/10/02 03:00:59;;;;;;;24.00;5.70;;;;;;;13.63;100.00;101344.44;4998913;28;20093;-55
2022/10/02 03:03:27;;;;;;;21.35;6.18;;;;;;;13.64;100.00;101348.84;5021995;28;20312;-57
2022/10/02 03:06:30;;;;;;;16.88;4.82;;;;;;;13.62;100.00;101343.63;5022043;28;20046;-55
2022/10/02 03:08:58;;;;;;;22.70;5.95;;;;;;;13.61;100.00;101336.53;5011139;28;20073;-55
2022/10/02 03:11:46;;;;;;;25.20;6.25;;;;;;;13.59;100.00;101338.72;5040440;28;20037;-56
2022/10/02 03:14:55;;;;;;;24.55;6.28;;;;;;;13.59;100.00;101330.50;5023260;28;20096;-53
2022/10/02 03:17:35;;;;;;;20.98;5.35;;;;;;;13.58;100.00;101339.78;5021525;28;20054;-53
2022/10/02 03:20:25;;;;;;;22.58;5.43;;;;;;;13.58;100.00;101333.50;5022305;28;20455;-52
2022/10/02 03:22:58;;;;;;;26.48;5.38;;;;;;;13.57;100.00;101338.16;5019651;28;20492;-55
2022/10/02 03:25:53;;;;;;;21.50;5.68;;;;;;;13.59;100.00;101341.44;5029592;28;20045;-54
2022/10/02 03:28:59;;;;;;;25.40;5.93;;;;;;;13.59;100.00;101344.19;5026159;28;20050;-53
2022/10/02 03:31:29;;;;;;;22.15;5.75;;;;;;;13.59;100.00;101346.13;5011158;28;20103;-53
2022/10/02 03:33:59;;;;;;;24.00;5.07;;;;;;;13.61;100.00;101350.22;5026980;28;20563;-55
2022/10/02 03:36:27;;;;;;;23.08;5.53;;;;;;;13.59;100.00;101357.88;5015557;28;20041;-58
2022/10/02 03:38:58;;;;;;;21.48;5.45;;;;;;;13.60;100.00;101354.03;5031242;28;20034;-53
2022/10/02 03:41:45;;;;;;;20.75;5.78;;;;;;;13.61;100.00;101355.69;5023158;28;20069;-55
2022/10/02 03:44:13;;;;;;;23.77;5.47;;;;;;;13.62;100.00;101351.03;5031154;28;20104;-56
2022/10/02 03:46:40;;;;;;;29.13;6.25;;;;;;;13.62;100.00;101346.38;5032673;28;20547;-60
2022/10/02 03:49:08;;;;;;;19.63;5.32;;;;;;;13.63;100.00;101353.47;5031605;28;20076;-58
2022/10/02 03:51:36;;;;;;;24.67;5.28;;;;;;;13.63;100.00;101352.66;5028200;28;20403;-57
2022/10/02 03:54:15;;;;;;;20.75;4.93;;;;;;;13.62;100.00;101357.31;5031661;28;20045;-58
2022/10/02 03:56:57;;;;;;;18.70;5.07;;;;;;;13.62;100.00;101351.84;5019515;28;20044;-59
2022/10/02 03:59:46;;;;;;;19.88;5.82;;;;;;;13.62;100.00;101349.09;5051635;28;20095;-59
2022/10/02 04:02:22;;;;;;;17.38;4.65;;;;;;;13.63;100.00;101348.00;5025569;28;20046;-56
2022/10/02 04:04:54;;;;;;;15.88;4.80;;;;;;;13.63;100.00;101348.00;5031454;28;20045;-57
2022/10/02 04:07:31;;;;;;;17.50;5.00;;;;;;;13.63;100.00;101345.25;5033729;28;20044;-59
2022/10/02 04:09:59;;;;;;;18.42;4.75;;;;;;;13.62;100.00;101340.88;5034781;28;20045;-59
2022/10/02 04:12:35;;;;;;;17.77;4.20;;;;;;;13.63;100.00;101349.91;5027881;28;20034;-59
2022/10/02 04:15:06;;;;;;;16.25;4.85;;;;;;;13.62;100.00;101361.97;5028453;28;20046;-59
2022/10/02 04:17:50;;;;;;;19.38;4.57;;;;;;;13.61;100.00;101350.22;5015567;28;20069;-59
2022/10/02 04:20:44;;;;;;;13.90;4.50;;;;;;;13.61;100.00;101350.22;5033725;28;20041;-56
2022/10/02 04:23:31;;;;;;;15.55;4.30;;;;;;;13.59;100.00;101351.59;5034195;28;20046;-58
2022/10/02 04:26:22;;;;;;;14.65;3.88;;;;;;;13.57;100.00;101351.84;5023278;28;20033;-60
2022/10/02 04:29:15;;;;;;;12.70;3.65;;;;;;;13.56;100.00;101347.44;5034384;28;20041;-56
2022/10/02 04:31:47;;;;;;;11.40;3.60;;;;;;;13.53;100.00;101337.06;5034769;28;20080;-58
2022/10/02 04:34:14;;;;;;;13.93;3.60;;;;;;;13.53;100.00;101347.19;5031854;28;20542;-57
2022/10/02 04:37:08;;;;;;;12.77;3.35;;;;;;;13.51;100.00;101344.72;5035357;28;20064;-57
2022/10/02 04:39:39;;;;;;;15.80;4.40;;;;;;;13.50;100.00;101348.56;5034604;28;20053;-58
2022/10/02 04:42:43;;;;;;;11.27;3.28;;;;;;;13.50;100.00;101354.03;5032254;28;20079;-59
2022/10/02 04:45:29;;;;;;;15.45;3.50;;;;;;;13.51;100.00;101360.34;5022797;28;20049;-56
2022/10/02 04:48:23;;;;;;;12.75;3.67;;;;;;;13.49;100.00;101373.47;5023868;28;20091;-60
2022/10/02 04:51:04;;;;;;;10.27;3.10;;;;;;;13.49;100.00;101389.91;5033231;28;20037;-55
2022/10/02 04:53:45;;;;;;;12.80;3.10;;;;;;;13.48;100.00;101389.09;5030990;28;20072;-58
2022/10/02 04:56:50;;;;;;;10.50;3.40;;;;;;;13.48;100.00;101389.09;5032951;28;20518;-59
2022/10/02 04:59:26;;;;;;;10.75;3.17;;;;;;;13.49;100.00;101387.97;5035004;28;20567;-59
2022/10/02 05:01:54;;;;;;;;;;;;;;;13.49;100.00;101398.94;5027054;28;20499;-57
2022/10/02 05:04:28;;;;;;;9.90;2.97;;;;;;;13.48;100.00;101389.09;5033213;28;20287;-57
2022/10/02 05:07:17;;;;;;;11.27;3.50;;;;;;;13.48;100.00;101400.03;5020830;28;20048;-57
2022/10/02 05:10:00;;;;;;;10.77;3.65;;;;;;;13.46;100.00;101391.28;5028305;28;20058;-57
2022/10/02 05:12:34;;;;;;;13.52;3.78;;;;;;;13.46;100.00;101388.53;5030514;28;20045;-56
2022/10/02 05:15:22;;;;;;;9.73;3.25;;;;;;;13.45;100.00;101389.63;5032522;28;20068;-55
2022/10/02 05:17:50;;;;;;;11.15;3.28;;;;;;;13.46;100.00;101385.78;5020652;28;20112;-57
2022/10/02 05:20:32;;;;;;;10.43;3.08;;;;;;;13.46;100.00;101385.78;5031014;28;20488;-56
2022/10/02 05:23:11;;;;;;;16.92;3.58;;;;;;;13.47;100.00;101397.56;5033120;28;20041;-57
2022/10/02 05:26:00;;;;;;;12.90;3.65;;;;;;;13.47;100.00;101383.88;5032835;28;20041;-58
2022/10/02 05:28:42;;;;;;;12.77;3.75;;;;;;;13.46;100.00;101396.75;5041894;28;20058;-58
2022/10/02 05:31:28;;;;;;;11.02;3.63;;;;;;;13.47;100.00;101398.41;5031471;28;20049;-55
2022/10/02 05:34:08;;;;;;;13.32;3.80;;;;;;;13.47;100.00;101403.88;5020144;28;20042;-57
2022/10/02 05:36:41;;;;;;;13.60;3.70;;;;;;;13.46;100.00;101396.75;5030615;28;20037;-55
2022/10/02 05:39:17;;;;;;;10.88;3.53;;;;;;;13.47;100.00;101403.03;5032642;28;20037;-54
2022/10/02 05:42:24;;;;;;;13.63;4.28;;;;;;;13.48;100.00;101410.97;5029798;28;20096;-55
2022/10/02 05:45:04;;;;;;;13.90;4.15;;;;;;;13.47;100.00;101417.56;5014287;28;20057;-56
2022/10/02 05:47:45;;;;;;;17.75;4.00;;;;;;;13.45;100.00;101416.19;5013727;28;20566;-56
2022/10/02 05:50:26;;;;;;;16.27;3.80;;;;;;;13.45;100.00;101414.28;5033002;28;20566;-58
2022/10/02 05:53:01;;;;;;;18.45;4.22;;;;;;;13.45;100.00;101417.00;5018586;28;20088;-56
2022/10/02 05:56:04;;;;;;;17.77;4.00;;;;;;;13.44;100.00;101423.56;5024291;28;20496;-57
2022/10/02 05:58:55;;;;;;;15.20;4.30;;;;;;;13.42;100.00;101423.84;5031888;28;20492;-58
2022/10/02 06:01:31;;;;;;;17.80;4.28;;;;;;;13.42;100.00;101423.00;5016070;28;20499;-58
2022/10/02 06:04:19;;;;;;;21.25;5.20;;;;;;;13.41;100.00;101433.16;5026112;28;20042;-58
2022/10/02 06:06:55;;;;;;;26.73;5.15;;;;;;;13.42;100.00;101429.34;5021693;28;20084;-54
2022/10/02 06:09:34;;;;;;;17.65;4.88;;;;;;;13.44;100.00;101426.31;5032350;28;20037;-54
2022/10/02 06:12:34;;;;;;;19.77;5.05;;;;;;;13.46;100.00;101415.91;5032469;28;20044;-54
2022/10/02 06:15:24;;;;;;;19.80;5.13;;;;;;;13.46;100.00;101420.56;5030750;28;20041;-54
2022/10/02 06:17:56;;;;;;;22.15;5.50;;;;;;;13.47;100.00;101435.88;5030133;28;20100;-53
2022/10/02 06:20:47;;;;;;;21.20;5.78;;;;;;;13.48;100.00;101452.03;5031944;28;20190;-55
2022/10/02 06:23:30;;;;;;;18.90;5.38;;;;;;;13.50;100.00;101457.25;5031809;28;20095;-57
2022/10/02 06:26:23;;;;;;;20.45;5.53;;;;;;;13.48;100.00;101460.25;5029519;28;20045;-56
2022/10/02 06:29:01;;;;;;;20.35;5.30;;;;;;;13.49;100.00;101459.16;5017569;28;20046;-57
2022/10/02 06:31:47;;;;;;;20.20;5.35;;;;;;;13.51;100.00;101456.97;5029142;28;20045;-57
2022/10/02 06:34:15;;;;;;;18.40;5.32;;;;;;;13.51;100.00;101451.50;5033158;28;20045;-51
2022/10/02 06:37:10;;;;;;;19.25;5.20;;;;;;;13.53;100.00;101454.78;5024617;28;20038;-53
2022/10/02 06:39:58;;;;;;;19.60;5.78;;;;;;;13.55;100.00;101455.34;5020161;28;20128;-54
2022/10/02 06:42:51;;;;;;;19.48;5.30;;;;;;;13.57;100.00;101460.56;5026310;28;20050;-54
2022/10/02 06:45:31;;;;;;;22.20;5.43;;;;;;;13.59;100.00;101450.97;5026049;28;20040;-56
2022/10/02 06:48:05;;;;;;;21.23;5.65;;;;;;;13.60;100.00;101463.56;5020102;28;20042;-59
2022/10/02 06:51:15;;;;;;;23.95;5.30;;;;;;;13.60;100.00;101468.22;5027763;28;20048;-59
2022/10/02 06:54:20;;;;;;;19.73;5.18;;;;;;;13.62;100.00;101466.03;5028226;28;20049;-55
2022/10/02 06:56:57;;;;;;;22.98;5.30;;;;;;;13.63;100.00;101471.22;5030689;28;20048;-57
2022/10/02 06:59:36;;;;;;;20.85;6.30;;;;;;;13.66;100.00;101480.00;5032030;28;20049;-57
2022/10/02 07:02:33;;;;;;;18.40;5.30;;;;;;;13.67;100.00;101481.66;5025768;28;20041;-57
2022/10/02 07:05:19;;;;;;;28.83;6.63;;;;;;;13.68;100.00;101491.50;5020438;28;20061;-54
2022/10/02 07:07:59;;;;;;;19.08;5.82;;;;;;;13.67;100.00;101498.91;5033577;28;20045;-58
2022/10/02 07:11:04;;;;;;;19.13;5.80;;;;;;;13.69;100.00;101495.91;5042978;28;20068;-58
2022/10/02 07:14:00;;;;;;;20.03;5.30;;;;;;;13.70;100.00;101489.31;5029775;28;20042;-55
2022/10/02 07:16:37;;;;;;;18.35;5.53;;;;;;;13.71;100.00;101490.94;5014085;28;20132;-57
2022/10/02 07:19:34;;;;;;;23.23;6.30;;;;;;;13.72;100.00;101498.91;5012618;28;20108;-54
2022/10/02 07:22:29;;;;;;;28.65;7.13;;;;;;;13.72;100.00;101489.88;5012906;28;20045;-55
2022/10/02 07:25:36;;;;;;;26.48;6.18;;;;;;;13.74;100.00;101495.91;5013252;28;20061;-53
2022/10/02 07:28:42;;;;;;;23.60;6.20;;;;;;;13.74;100.00;101496.72;5016751;28;20052;-52
2022/10/02 07:31:44;;;;;;;22.38;5.97;;;;;;;13.75;100.00;101497.53;5014260;28;20046;-53
2022/10/02 07:34:31;;;;;;;30.67;7.03;;;;;;;13.75;100.00;101495.59;5015080;28;20056;-53
2022/10/02 07:37:24;;;;;;;22.38;6.20;;;;;;;13.75;100.00;101494.78;5022042;28;20045;-54
2022/10/02 07:40:23;;;;;;;21.33;5.30;;;;;;;13.77;100.00;101506.31;5020603;28;20100;-56
2022/10/02 07:42:56;;;;;;;21.85;6.55;;;;;;;13.79;100.00;101513.16;5017799;28;20038;-55
2022/10/02 07:45:38;;;;;;;19.17;4.90;;;;;;;13.83;100.00;101510.69;5034583;28;20073;-53
2022/10/02 07:48:23;;;;;;;20.02;6.00;;;;;;;13.85;100.00;101513.97;5051447;28;20396;-50
2022/10/02 07:51:03;;;;;;;16.60;4.95;;;;;;;13.88;100.00;101518.91;5033503;28;20038;-50
2022/10/02 07:53:48;;;;;;;19.48;5.38;;;;;;;13.91;100.00;101521.09;5036033;28;20049;-53
2022/10/02 07:56:21;;;;;;;18.88;5.80;;;;;;;13.93;100.00;101523.56;5030816;28;20042;-54
2022/10/02 07:59:01;;;;;;;17.13;5.38;;;;;;;13.96;100.00;101526.56;5021525;28;20029;-52
2022/10/02 08:01:35;;;;;;;22.33;5.20;;;;;;;13.97;100.00;101528.22;5046370;28;20056;-55
2022/10/02 08:04:13;;;;;;;23.15;6.28;;;;;;;13.97;100.00;101528.22;5024157;28;20099;-54
2022/10/02 08:06:43;;;;;;;20.77;4.95;;;;;;;13.98;100.00;101523.56;5030504;28;20033;-55
2022/10/02 08:09:21;;;;;;;21.20;5.65;;;;;;;14.02;100.00;101530.97;5005122;28;20050;-56
2022/10/02 08:11:55;;;;;;;21.13;5.20;;;;;;;14.04;100.00;101533.41;5018206;28;20090;-56
2022/10/02 08:14:31;;;;;;;17.13;4.90;;;;;;;14.04;100.00;101539.72;5024939;28;20046;-56
2022/10/02 08:17:05;;;;;;;20.17;7.05;;;;;;;14.05;100.00;101546.88;5021392;28;20045;-54
2022/10/02 08:19:48;;;;;;;19.48;5.63;;;;;;;14.06;100.00;101548.50;5024280;28;20443;-53
2022/10/02 08:22:32;;;;;;;22.52;5.40;;;;;;;14.09;100.00;101557.28;5014574;28;20098;-52
2022/10/02 08:25:12;;;;;;;17.40;4.47;;;;;;;14.10;100.00;101558.94;5033535;28;20554;-56
2022/10/02 08:28:00;;;;;;;15.65;5.03;;;;;;;14.12;100.00;101563.03;5021063;28;20416;-55
2022/10/02 08:30:28;;;;;;;18.42;5.07;;;;;;;14.15;100.00;101573.44;5029595;28;20050;-53
2022/10/02 08:32:56;;;;;;;19.05;5.28;;;;;;;14.17;100.00;101570.44;5045340;28;20038;-54
2022/10/02 08:35:39;;;;;;;23.30;5.35;;;;;;;14.17;100.00;101570.44;5023991;28;20417;-55
2022/10/02 08:38:23;;;;;;;15.60;4.90;;;;;;;14.18;100.00;101572.06;5032039;28;20050;-56
2022/10/02 08:41:44;;;;;;;17.27;5.10;;;;;;;14.22;100.00;101575.91;5030316;28;20080;-54
2022/10/02 08:44:20;;;;;;;15.68;4.50;;;;;;;14.24;100.00;101573.72;5012692;28;20050;-57
2022/10/02 08:47:14;;;;;;;23.67;5.95;;;;;;;14.24;100.00;101581.97;5034413;28;20107;-53
2022/10/02 08:50:21;;;;;;;18.95;5.28;;;;;;;14.25;100.00;101589.06;5026484;28;20045;-57
2022/10/02 08:52:52;;;;;;;19.40;5.20;;;;;;;14.26;100.00;101596.19;5031967;28;20050;-55
2022/10/02 08:55:28;;;;;;;19.40;5.15;;;;;;;14.30;100.00;101602.78;5016361;28;20405;-54
2022/10/02 08:58:09;;;;;;;19.70;5.00;;;;;;;14.32;100.00;101597.84;5030367;28;20069;-54
2022/10/02 09:01:14;;;;;;;20.13;4.85;;;;;;;14.30;100.00;101594.56;5023306;28;20056;-56
2022/10/02 09:04:14;;;;;;;18.73;4.57;;;;;;;14.32;100.00;101603.31;5017371;28;20133;-55
2022/10/02 09:07:05;;;;;;;19.45;5.03;;;;;;;14.34;100.00;101614.03;5023011;28;20053;-53
2022/10/02 09:10:18;;;;;;;18.15;4.60;;;;;;;14.35;100.00;101610.19;5018659;28;20041;-53
2022/10/02 09:13:24;;;;;;;20.80;4.63;;;;;;;14.37;100.00;101619.78;5015789;28;20409;-54
2022/10/02 09:16:14;;;;;;;22.63;5.88;;;;;;;14.34;100.00;101614.84;5027503;28;20488;-55
2022/10/02 09:19:01;;;;;;;21.38;4.65;;;;;;;14.36;100.00;101620.03;5010494;28;20054;-53
2022/10/02 09:21:34;;;;;;;16.30;5.40;;;;;;;14.41;100.00;101615.41;5041508;28;20092;-54
2022/10/02 09:24:42;;;;;;;15.25;4.40;;;;;;;14.46;100.00;101617.31;5016451;28;20099;-55
2022/10/02 09:27:40;;;;;;;19.42;4.75;;;;;;;14.51;100.00;101621.97;5040579;28;20480;-53
2022/10/02 09:30:41;;;;;;;18.85;5.32;;;;;;;14.54;100.00;101616.78;5032471;28;20046;-53
2022/10/02 09:33:31;;;;;;;21.77;4.97;;;;;;;14.55;100.00;101615.72;5031898;28;20092;-54
2022/10/02 09:36:38;;;;;;;19.65;4.80;;;;;;;14.56;100.00;101617.34;5028165;28;20484;-54
2022/10/02 09:39:31;;;;;;;16.95;4.68;;;;;;;14.58;100.00;101622.56;5033057;28;20103;-53
2022/10/02 09:42:37;;;;;;;23.33;5.30;;;;;;;14.59;100.00;101624.19;5034280;28;20394;-53
2022/10/02 09:45:44;;;;;;;20.65;4.28;;;;;;;14.61;100.00;101624.75;5031732;28;20095;-55
2022/10/02 09:48:30;;;;;;;19.85;4.63;;;;;;;14.63;100.00;101628.03;5020121;28;20093;-52
2022/10/02 09:51:16;;;;;;;21.52;4.47;;;;;;;14.61;100.00;101630.22;5029634;28;20041;-53
2022/10/02 09:54:20;;;;;;;13.48;4.00;;;;;;;14.62;100.00;101637.34;5019389;28;20459;-52
2022/10/02 09:57:11;;;;;;;17.52;4.40;;;;;;;14.65;100.00;101625.84;5020172;28;20081;-52
2022/10/02 10:00:03;;;;;;;19.27;4.25;;;;;;;14.67;100.00;101635.44;5032564;28;20072;-56
2022/10/02 10:02:47;;;;;;;23.38;4.85;;;;;;;14.70;100.00;101639.56;5029698;28;20053;-54
2022/10/02 10:05:26;;;;;;;18.23;3.75;;;;;;;14.71;100.00;101627.47;5032356;28;20092;-56
2022/10/02 10:08:03;;;;;;;15.90;3.90;;;;;;;14.78;100.00;101635.41;5033989;28;20041;-55
2022/10/02 10:10:37;;;;;;;18.58;4.63;;;;;;;14.80;100.00;101628.56;5033158;28;20380;-55
2022/10/02 10:13:31;;;;;;;24.45;4.82;;;;;;;14.81;100.00;101632.94;5030983;28;20038;-55
2022/10/02 10:16:22;;;;;;;18.95;4.53;;;;;;;14.86;100.00;101638.44;5032335;28;20399;-56
2022/10/02 10:19:01;;;;;;;21.10;4.60;;;;;;;14.91;100.00;101643.91;5033395;28;20104;-55
2022/10/02 10:21:47;;;;;;;17.58;4.75;;;;;;;14.98;100.00;101638.13;5032444;28;20054;-53
2022/10/02 10:24:33;;;;;;;19.63;4.80;;;;;;;14.99;100.00;101647.19;5030153;28;20045;-52
2022/10/02 10:27:28;;;;;;;18.73;4.45;;;;;;;15.05;100.00;101662.53;5037749;28;20046;-55
2022/10/02 10:30:24;;;;;;;19.17;4.22;;;;;;;15.12;100.00;101658.41;5025906;28;20045;-52
2022/10/02 10:33:23;;;;;;;19.83;4.20;;;;;;;15.18;100.00;101664.72;5032032;28;20053;-53
2022/10/02 10:35:53;;;;;;;16.38;4.20;;;;;;;15.19;100.00;101658.13;5020938;28;20046;-52
2022/10/02 10:38:50;;;;;;;21.65;4.75;;;;;;;15.20;100.00;101665.25;5032859;28;20035;-54
2022/10/02 10:41:30;;;;;;;24.83;4.80;;;;;;;15.22;99.62;101673.19;5014097;28;20053;-55
2022/10/02 10:44:31;;;;;;;20.02;4.57;;;;;;;15.25;100.00;101675.38;5034082;28;20041;-52
2022/10/02 10:47:18;;;;;;;18.20;4.00;;;;;;;15.31;100.00;101679.78;5027652;28;20056;-57
2022/10/02 10:50:05;;;;;;;18.58;4.68;;;;;;;15.36;100.00;101689.91;5033463;28;20037;-51
2022/10/02 10:52:54;;;;;;;14.57;3.67;;;;;;;15.39;100.00;101681.94;5028139;28;20050;-53
2022/10/02 10:55:30;;;;;;;16.23;4.03;;;;;;;15.47;100.00;101691.53;5031049;28;20046;-52
2022/10/02 10:58:31;;;;;;;16.63;4.28;;;;;;;15.49;99.56;101692.91;5028567;28;20045;-52
2022/10/02 11:01:17;;;;;;;19.25;4.10;;;;;;;15.49;94.52;101700.31;5031840;28;20408;-53
2022/10/02 11:04:27;;;;;;;19.25;3.60;;;;;;;15.44;92.72;101687.44;5029958;28;20042;-55
2022/10/02 11:07:06;;;;;;;16.02;4.00;;;;;;;15.43;93.17;101682.22;5032495;28;20095;-51
2022/10/02 11:09:49;;;;;;;18.25;3.83;;;;;;;15.39;90.07;101686.63;5029696;28;20034;-55
2022/10/02 11:12:27;;;;;;;15.32;3.90;;;;;;;15.34;89.58;101684.69;5024381;28;20045;-55
2022/10/02 11:15:16;;;;;;;18.92;4.85;;;;;;;15.30;88.80;101694.63;5036251;28;20396;-54
2022/10/02 11:18:27;;;;;;;17.95;4.90;;;;;;;15.28;90.86;101707.78;5041495;28;20487;-54
2022/10/02 11:21:17;;;;;;;25.33;4.10;;;;;;;15.27;91.73;101704.22;5052974;28;20045;-54
2022/10/02 11:24:07;;;;;;;14.35;3.78;;;;;;;15.27;93.35;101701.50;5036580;28;20447;-57
2022/10/02 11:27:23;;;;;;;17.08;4.47;;;;;;;15.26;91.12;101699.00;5048849;28;20052;-54
2022/10/02 11:30:24;;;;;;;14.38;3.22;;;;;;;15.25;91.56;101694.59;5040968;28;20050;-56
2022/10/02 11:33:23;;;;;;;15.60;3.63;;;;;;;15.25;91.05;101703.69;5036649;28;20431;-55
2022/10/02 11:35:56;;;;;;;22.80;4.63;;;;;;;15.29;91.14;101714.91;5017923;28;20048;-52
2022/10/02 11:38:34;;;;;;;16.02;3.80;;;;;;;15.31;90.25;101716.28;5036809;28;20045;-54
2022/10/02 11:41:20;;;;;;;15.80;3.75;;;;;;;15.35;90.71;101716.56;5030980;28;20045;-51
2022/10/02 11:44:11;;;;;;;20.45;4.15;;;;;;;15.36;90.79;101712.72;5035599;28;20038;-54
2022/10/02 11:46:53;;;;;;;18.30;4.45;;;;;;;15.38;90.98;101715.19;5036639;28;20045;-54
2022/10/02 11:49:42;;;;;;;16.63;4.20;;;;;;;15.40;92.04;101723.97;5035066;28;20034;-50
2022/10/02 11:52:29;;;;;;;18.48;4.45;;;;;;;15.41;91.65;101717.38;5018714;28;20550;-55
2022/10/02 11:55:02;;;;;;;19.42;4.03;;;;;;;15.42;91.16;101719.03;5020141;28;20092;-53
2022/10/02 11:57:52;;;;;;;19.83;4.70;;;;;;;15.43;92.24;101717.91;5043183;28;20049;-55
2022/10/02 12:00:31;;;;;;;20.67;4.32;;;;;;;15.47;91.56;101728.06;5036273;28;20111;-55
2022/10/02 12:03:14;;;;;;;16.50;3.78;;;;;;;15.49;88.75;101731.38;5035923;28;20500;-56
2022/10/02 12:06:14;;;;;;;19.05;4.25;;;;;;;15.54;86.97;101719.53;5025594;28;20050;-52
2022/10/02 12:08:50;;;;;;;19.98;3.53;;;;;;;15.60;87.21;101729.41;5033702;28;20049;-56
2022/10/02 12:11:25;;;;;;;16.30;4.47;;;;;;;15.64;88.33;101730.50;5035763;28;20504;-55
2022/10/02 12:14:00;;;;;;;16.25;3.78;;;;;;;15.64;89.13;101729.66;5018397;28;20037;-52
2022/10/02 12:16:43;;;;;;;16.42;4.13;;;;;;;15.63;90.02;101742.56;5033031;28;20045;-54
2022/10/02 12:19:34;;;;;;;21.05;4.40;;;;;;;15.63;91.14;101734.31;5034714;28;20068;-53
2022/10/02 12:28:20;;;;;;;15.70;4.00;;;;;;;15.67;89.55;101734.59;5024208;28;20045;-51
2022/10/02 12:31:26;;;;;;;13.80;3.75;;;;;;;15.70;90.07;101745.06;5034622;28;20041;-50